sensor_id;sensor_type;location;lat;lon;timestamp;P1;durP1;ratioP1;P2;durP2;ratioP2
22024;SDS011;11176;51.448;6.650;2022-11-20T00:01:13;39.72;;;25.90;;
22024;SDS011;11176;51.448;6.650;2022-11-20T00:03:41;43.33;;;26.30;;
22024;SDS011;11176;51.448;6.650;2022-11-20T00:06:09;46.75;;;27.77;;
22024;SDS011;11176;51.448;6.650;2022-11-20T00:08:38;38.13;;;25.35;;
22024;SDS011;11176;51.448;6.650;2022-11-20T00:11:05;40.00;;;26.20;;
22024;SDS011;11176;51.448;6.650;2022-11-20T00:13:42;45.00;;;27.52;;
22024;SDS011;11176;51.448;6.650;2022-11-20T00:16:09;42.88;;;27.13;;
22024;SDS011;11176;51.448;6.650;2022-11-20T00:18:37;40.70;;;26.88;;
22024;SDS011;11176;51.448;6.650;2022-11-20T00:21:04;40.20;;;26.25;;
22024;SDS011;11176;51.448;6.650;2022-11-20T00:23:33;37.67;;;25.80;;
22024;SDS011;11176;51.448;6.650;2022-11-20T00:26:03;37.33;;;25.83;;
22024;SDS011;11176;51.448;6.650;2022-11-20T00:28:31;35.20;;;24.05;;
22024;SDS011;11176;51.448;6.650;2022-11-20T00:31:04;38.33;;;24.55;;
22024;SDS011;11176;51.448;6.650;2022-11-20T00:33:33;41.33;;;26.20;;
22024;SDS011;11176;51.448;6.650;2022-11-20T00:36:00;39.42;;;25.27;;
22024;SDS011;11176;51.448;6.650;2022-11-20T00:38:28;39.28;;;25.05;;
22024;SDS011;11176;51.448;6.650;2022-11-20T00:40:56;42.90;;;26.48;;
22024;SDS011;11176;51.448;6.650;2022-11-20T00:43:23;41.08;;;27.30;;
22024;SDS011;11176;51.448;6.650;2022-11-20T00:45:51;39.53;;;26.13;;
22024;SDS011;11176;51.448;6.650;2022-11-20T00:48:21;41.38;;;26.90;;
22024;SDS011;11176;51.448;6.650;2022-11-20T00:50:48;42.80;;;27.52;;
22024;SDS011;11176;51.448;6.650;2022-11-20T00:53:14;41.83;;;27.48;;
22024;SDS011;11176;51.448;6.650;2022-11-20T00:55:41;37.53;;;25.38;;
22024;SDS011;11176;51.448;6.650;2022-11-20T00:58:07;35.50;;;24.95;;
22024;SDS011;11176;51.448;6.650;2022-11-20T01:00:39;39.78;;;26.38;;
22024;SDS011;11176;51.448;6.650;2022-11-20T01:03:05;44.38;;;26.80;;
22024;SDS011;11176;51.448;6.650;2022-11-20T01:05:33;41.17;;;25.58;;
22024;SDS011;11176;51.448;6.650;2022-11-20T01:08:01;39.17;;;25.17;;
22024;SDS011;11176;51.448;6.650;2022-11-20T01:10:27;37.85;;;25.30;;
22024;SDS011;11176;51.448;6.650;2022-11-20T01:12:53;39.08;;;27.83;;
22024;SDS011;11176;51.448;6.650;2022-11-20T01:15:40;42.83;;;28.83;;
22024;SDS011;11176;51.448;6.650;2022-11-20T01:18:06;42.28;;;26.95;;
22024;SDS011;11176;51.448;6.650;2022-11-20T01:20:36;42.47;;;26.98;;
22024;SDS011;11176;51.448;6.650;2022-11-20T01:23:03;41.83;;;27.88;;
22024;SDS011;11176;51.448;6.650;2022-11-20T01:25:30;39.70;;;27.20;;
22024;SDS011;11176;51.448;6.650;2022-11-20T01:27:56;39.45;;;26.23;;
22024;SDS011;11176;51.448;6.650;2022-11-20T01:30:23;41.83;;;27.48;;
22024;SDS011;11176;51.448;6.650;2022-11-20T01:32:49;36.97;;;26.05;;
22024;SDS011;11176;51.448;6.650;2022-11-20T01:35:16;39.40;;;26.30;;
22024;SDS011;11176;51.448;6.650;2022-11-20T01:37:42;41.67;;;27.08;;
22024;SDS011;11176;51.448;6.650;2022-11-20T01:40:09;40.15;;;26.05;;
22024;SDS011;11176;51.448;6.650;2022-11-20T01:42:35;38.63;;;26.00;;
22024;SDS011;11176;51.448;6.650;2022-11-20T01:48:22;38.92;;;26.35;;
22024;SDS011;11176;51.448;6.650;2022-11-20T01:50:52;36.13;;;25.52;;
22024;SDS011;11176;51.448;6.650;2022-11-20T01:53:21;37.28;;;25.60;;
22024;SDS011;11176;51.448;6.650;2022-11-20T01:55:51;43.47;;;26.80;;
22024;SDS011;11176;51.448;6.650;2022-11-20T01:58:22;37.45;;;25.40;;
22024;SDS011;11176;51.448;6.650;2022-11-20T02:00:55;38.05;;;26.05;;
22024;SDS011;11176;51.448;6.650;2022-11-20T02:03:22;37.55;;;25.65;;
22024;SDS011;11176;51.448;6.650;2022-11-20T02:05:51;39.80;;;26.85;;
22024;SDS011;11176;51.448;6.650;2022-11-20T02:08:21;37.95;;;26.63;;
22024;SDS011;11176;51.448;6.650;2022-11-20T02:10:49;35.67;;;25.63;;
22024;SDS011;11176;51.448;6.650;2022-11-20T02:13:16;36.95;;;24.75;;
22024;SDS011;11176;51.448;6.650;2022-11-20T02:16:01;38.38;;;26.83;;
22024;SDS011;11176;51.448;6.650;2022-11-20T02:18:29;38.53;;;26.45;;
22024;SDS011;11176;51.448;6.650;2022-11-20T02:21:01;36.65;;;26.23;;
22024;SDS011;11176;51.448;6.650;2022-11-20T02:23:55;39.20;;;25.90;;
22024;SDS011;11176;51.448;6.650;2022-11-20T02:26:23;41.13;;;27.73;;
22024;SDS011;11176;51.448;6.650;2022-11-20T02:28:52;43.63;;;28.08;;
22024;SDS011;11176;51.448;6.650;2022-11-20T02:31:20;38.25;;;26.83;;
22024;SDS011;11176;51.448;6.650;2022-11-20T02:33:46;39.88;;;27.60;;
22024;SDS011;11176;51.448;6.650;2022-11-20T02:36:14;41.53;;;29.15;;
22024;SDS011;11176;51.448;6.650;2022-11-20T02:38:42;37.67;;;27.98;;
22024;SDS011;11176;51.448;6.650;2022-11-20T02:41:09;39.97;;;27.40;;
22024;SDS011;11176;51.448;6.650;2022-11-20T02:43:36;38.08;;;28.67;;
22024;SDS011;11176;51.448;6.650;2022-11-20T02:46:02;40.28;;;29.42;;
22024;SDS011;11176;51.448;6.650;2022-11-20T02:48:28;44.72;;;32.20;;
22024;SDS011;11176;51.448;6.650;2022-11-20T02:50:59;42.10;;;30.23;;
22024;SDS011;11176;51.448;6.650;2022-11-20T02:53:25;42.65;;;30.88;;
22024;SDS011;11176;51.448;6.650;2022-11-20T02:55:52;41.95;;;30.95;;
22024;SDS011;11176;51.448;6.650;2022-11-20T02:58:18;45.53;;;30.10;;
22024;SDS011;11176;51.448;6.650;2022-11-20T03:00:45;41.88;;;31.13;;
22024;SDS011;11176;51.448;6.650;2022-11-20T03:03:11;47.70;;;32.15;;
22024;SDS011;11176;51.448;6.650;2022-11-20T03:05:38;40.38;;;30.40;;
22024;SDS011;11176;51.448;6.650;2022-11-20T03:08:04;38.88;;;29.48;;
22024;SDS011;11176;51.448;6.650;2022-11-20T03:10:31;42.33;;;29.65;;
22024;SDS011;11176;51.448;6.650;2022-11-20T03:12:57;47.55;;;32.25;;
22024;SDS011;11176;51.448;6.650;2022-11-20T03:15:24;46.47;;;31.02;;
22024;SDS011;11176;51.448;6.650;2022-11-20T03:17:54;41.05;;;31.42;;
22024;SDS011;11176;51.448;6.650;2022-11-20T03:20:21;42.35;;;30.80;;
22024;SDS011;11176;51.448;6.650;2022-11-20T03:22:48;42.38;;;30.50;;
22024;SDS011;11176;51.448;6.650;2022-11-20T03:25:15;41.42;;;30.60;;
22024;SDS011;11176;51.448;6.650;2022-11-20T03:27:41;45.75;;;31.73;;
22024;SDS011;11176;51.448;6.650;2022-11-20T03:30:08;46.05;;;30.25;;
22024;SDS011;11176;51.448;6.650;2022-11-20T03:32:35;43.17;;;30.40;;
22024;SDS011;11176;51.448;6.650;2022-11-20T03:35:01;44.85;;;30.63;;
22024;SDS011;11176;51.448;6.650;2022-11-20T03:37:28;46.25;;;30.30;;
22024;SDS011;11176;51.448;6.650;2022-11-20T03:39:54;43.45;;;31.20;;
22024;SDS011;11176;51.448;6.650;2022-11-20T03:42:21;43.28;;;30.77;;
22024;SDS011;11176;51.448;6.650;2022-11-20T03:45:06;46.72;;;33.03;;
22024;SDS011;11176;51.448;6.650;2022-11-20T03:47:33;42.78;;;29.88;;
22024;SDS011;11176;51.448;6.650;2022-11-20T03:49:59;43.28;;;31.63;;
22024;SDS011;11176;51.448;6.650;2022-11-20T03:52:25;44.42;;;30.88;;
22024;SDS011;11176;51.448;6.650;2022-11-20T03:54:52;42.03;;;30.17;;
22024;SDS011;11176;51.448;6.650;2022-11-20T03:57:18;43.15;;;31.88;;
22024;SDS011;11176;51.448;6.650;2022-11-20T03:59:45;45.00;;;32.15;;
22024;SDS011;11176;51.448;6.650;2022-11-20T04:02:11;45.95;;;33.10;;
22024;SDS011;11176;51.448;6.650;2022-11-20T04:04:37;44.95;;;30.75;;
22024;SDS011;11176;51.448;6.650;2022-11-20T04:07:04;47.08;;;31.92;;
22024;SDS011;11176;51.448;6.650;2022-11-20T04:09:30;46.78;;;31.48;;
22024;SDS011;11176;51.448;6.650;2022-11-20T04:11:57;42.25;;;30.40;;
22024;SDS011;11176;51.448;6.650;2022-11-20T04:14:23;42.15;;;29.85;;
22024;SDS011;11176;51.448;6.650;2022-11-20T04:16:50;38.33;;;28.75;;
22024;SDS011;11176;51.448;6.650;2022-11-20T04:19:16;44.47;;;30.33;;
22024;SDS011;11176;51.448;6.650;2022-11-20T04:21:44;43.15;;;30.13;;
22024;SDS011;11176;51.448;6.650;2022-11-20T04:24:10;40.15;;;28.88;;
22024;SDS011;11176;51.448;6.650;2022-11-20T04:26:37;38.33;;;28.17;;
22024;SDS011;11176;51.448;6.650;2022-11-20T04:29:04;37.30;;;25.55;;
22024;SDS011;11176;51.448;6.650;2022-11-20T04:31:32;35.70;;;25.48;;
22024;SDS011;11176;51.448;6.650;2022-11-20T04:34:00;37.53;;;25.13;;
22024;SDS011;11176;51.448;6.650;2022-11-20T04:36:29;36.33;;;25.40;;
22024;SDS011;11176;51.448;6.650;2022-11-20T04:38:56;38.80;;;25.48;;
22024;SDS011;11176;51.448;6.650;2022-11-20T04:41:25;36.97;;;26.35;;
22024;SDS011;11176;51.448;6.650;2022-11-20T04:43:54;35.88;;;25.38;;
22024;SDS011;11176;51.448;6.650;2022-11-20T04:46:26;36.03;;;25.50;;
22024;SDS011;11176;51.448;6.650;2022-11-20T04:48:53;36.17;;;25.60;;
22024;SDS011;11176;51.448;6.650;2022-11-20T04:51:20;34.42;;;25.60;;
22024;SDS011;11176;51.448;6.650;2022-11-20T04:53:46;36.08;;;26.60;;
22024;SDS011;11176;51.448;6.650;2022-11-20T04:56:13;34.47;;;26.13;;
22024;SDS011;11176;51.448;6.650;2022-11-20T04:58:40;35.78;;;26.35;;
22024;SDS011;11176;51.448;6.650;2022-11-20T05:01:10;35.92;;;24.92;;
22024;SDS011;11176;51.448;6.650;2022-11-20T05:03:41;33.75;;;24.27;;
22024;SDS011;11176;51.448;6.650;2022-11-20T05:06:10;36.30;;;25.27;;
22024;SDS011;11176;51.448;6.650;2022-11-20T05:08:39;37.47;;;25.42;;
22024;SDS011;11176;51.448;6.650;2022-11-20T05:11:12;36.50;;;26.73;;
22024;SDS011;11176;51.448;6.650;2022-11-20T05:13:41;39.67;;;25.75;;
22024;SDS011;11176;51.448;6.650;2022-11-20T05:16:09;40.45;;;25.77;;
22024;SDS011;11176;51.448;6.650;2022-11-20T05:18:37;36.70;;;25.33;;
22024;SDS011;11176;51.448;6.650;2022-11-20T05:21:04;33.47;;;24.88;;
22024;SDS011;11176;51.448;6.650;2022-11-20T05:23:31;36.05;;;25.35;;
22024;SDS011;11176;51.448;6.650;2022-11-20T05:25:59;36.67;;;25.23;;
22024;SDS011;11176;51.448;6.650;2022-11-20T05:28:27;36.92;;;23.90;;
22024;SDS011;11176;51.448;6.650;2022-11-20T05:30:54;36.00;;;25.40;;
22024;SDS011;11176;51.448;6.650;2022-11-20T05:33:21;36.17;;;26.45;;
22024;SDS011;11176;51.448;6.650;2022-11-20T05:35:48;34.13;;;24.60;;
22024;SDS011;11176;51.448;6.650;2022-11-20T05:38:15;34.67;;;24.23;;
22024;SDS011;11176;51.448;6.650;2022-11-20T05:40:42;38.85;;;25.42;;
22024;SDS011;11176;51.448;6.650;2022-11-20T05:43:08;40.70;;;27.00;;
22024;SDS011;11176;51.448;6.650;2022-11-20T05:45:35;40.30;;;28.40;;
22024;SDS011;11176;51.448;6.650;2022-11-20T05:48:01;41.05;;;28.08;;
22024;SDS011;11176;51.448;6.650;2022-11-20T05:50:28;41.53;;;27.15;;
22024;SDS011;11176;51.448;6.650;2022-11-20T05:52:54;42.33;;;29.02;;
22024;SDS011;11176;51.448;6.650;2022-11-20T05:55:21;40.90;;;26.23;;
22024;SDS011;11176;51.448;6.650;2022-11-20T05:57:47;37.58;;;25.77;;
22024;SDS011;11176;51.448;6.650;2022-11-20T06:00:14;40.30;;;27.58;;
22024;SDS011;11176;51.448;6.650;2022-11-20T06:02:40;39.22;;;26.92;;
22024;SDS011;11176;51.448;6.650;2022-11-20T06:05:07;35.90;;;26.02;;
22024;SDS011;11176;51.448;6.650;2022-11-20T06:07:34;41.05;;;26.83;;
22024;SDS011;11176;51.448;6.650;2022-11-20T06:10:00;38.83;;;25.65;;
22024;SDS011;11176;51.448;6.650;2022-11-20T06:12:27;42.53;;;26.38;;
22024;SDS011;11176;51.448;6.650;2022-11-20T06:14:53;39.05;;;25.50;;
22024;SDS011;11176;51.448;6.650;2022-11-20T06:17:19;42.17;;;27.10;;
22024;SDS011;11176;51.448;6.650;2022-11-20T06:19:46;42.90;;;28.50;;
22024;SDS011;11176;51.448;6.650;2022-11-20T06:22:12;38.35;;;25.77;;
22024;SDS011;11176;51.448;6.650;2022-11-20T06:24:39;38.08;;;27.13;;
22024;SDS011;11176;51.448;6.650;2022-11-20T06:27:05;38.70;;;27.10;;
22024;SDS011;11176;51.448;6.650;2022-11-20T06:29:31;38.47;;;26.55;;
22024;SDS011;11176;51.448;6.650;2022-11-20T06:31:59;38.22;;;27.80;;
22024;SDS011;11176;51.448;6.650;2022-11-20T06:34:26;39.67;;;27.27;;
22024;SDS011;11176;51.448;6.650;2022-11-20T06:36:52;40.95;;;28.13;;
22024;SDS011;11176;51.448;6.650;2022-11-20T06:39:18;41.78;;;27.52;;
22024;SDS011;11176;51.448;6.650;2022-11-20T06:41:45;39.38;;;27.92;;
22024;SDS011;11176;51.448;6.650;2022-11-20T06:44:12;43.78;;;27.80;;
22024;SDS011;11176;51.448;6.650;2022-11-20T06:46:38;41.38;;;29.13;;
22024;SDS011;11176;51.448;6.650;2022-11-20T06:49:05;43.38;;;27.80;;
22024;SDS011;11176;51.448;6.650;2022-11-20T06:51:32;38.78;;;27.58;;
22024;SDS011;11176;51.448;6.650;2022-11-20T06:53:58;40.55;;;26.67;;
22024;SDS011;11176;51.448;6.650;2022-11-20T06:56:27;40.88;;;27.60;;
22024;SDS011;11176;51.448;6.650;2022-11-20T06:58:54;43.25;;;29.05;;
22024;SDS011;11176;51.448;6.650;2022-11-20T07:01:20;41.53;;;28.48;;
22024;SDS011;11176;51.448;6.650;2022-11-20T07:03:48;41.20;;;27.65;;
22024;SDS011;11176;51.448;6.650;2022-11-20T07:06:19;38.42;;;27.35;;
22024;SDS011;11176;51.448;6.650;2022-11-20T07:08:46;41.70;;;27.70;;
22024;SDS011;11176;51.448;6.650;2022-11-20T07:11:13;40.92;;;29.08;;
22024;SDS011;11176;51.448;6.650;2022-11-20T07:13:39;40.75;;;28.70;;
22024;SDS011;11176;51.448;6.650;2022-11-20T07:16:06;40.88;;;28.08;;
22024;SDS011;11176;51.448;6.650;2022-11-20T07:18:35;39.60;;;27.33;;
22024;SDS011;11176;51.448;6.650;2022-11-20T07:21:02;40.28;;;27.27;;
22024;SDS011;11176;51.448;6.650;2022-11-20T07:23:31;40.58;;;26.92;;
22024;SDS011;11176;51.448;6.650;2022-11-20T07:25:57;40.65;;;26.90;;
22024;SDS011;11176;51.448;6.650;2022-11-20T07:28:28;39.20;;;27.10;;
22024;SDS011;11176;51.448;6.650;2022-11-20T07:30:54;37.72;;;26.80;;
22024;SDS011;11176;51.448;6.650;2022-11-20T07:33:20;40.65;;;27.83;;
22024;SDS011;11176;51.448;6.650;2022-11-20T07:35:47;39.47;;;26.85;;
22024;SDS011;11176;51.448;6.650;2022-11-20T07:38:13;46.65;;;29.05;;
22024;SDS011;11176;51.448;6.650;2022-11-20T07:40:40;35.92;;;26.17;;
22024;SDS011;11176;51.448;6.650;2022-11-20T07:43:06;38.05;;;26.73;;
22024;SDS011;11176;51.448;6.650;2022-11-20T07:45:33;41.45;;;28.42;;
22024;SDS011;11176;51.448;6.650;2022-11-20T07:47:59;42.70;;;28.73;;
22024;SDS011;11176;51.448;6.650;2022-11-20T07:50:26;43.53;;;28.65;;
22024;SDS011;11176;51.448;6.650;2022-11-20T07:52:52;43.63;;;28.35;;
22024;SDS011;11176;51.448;6.650;2022-11-20T07:55:26;38.28;;;26.77;;
22024;SDS011;11176;51.448;6.650;2022-11-20T07:57:56;43.85;;;30.33;;
22024;SDS011;11176;51.448;6.650;2022-11-20T08:00:25;41.93;;;30.27;;
22024;SDS011;11176;51.448;6.650;2022-11-20T08:02:53;38.03;;;27.88;;
22024;SDS011;11176;51.448;6.650;2022-11-20T08:05:19;46.17;;;29.50;;
22024;SDS011;11176;51.448;6.650;2022-11-20T08:07:45;43.42;;;30.58;;
22024;SDS011;11176;51.448;6.650;2022-11-20T08:10:13;43.72;;;28.75;;
22024;SDS011;11176;51.448;6.650;2022-11-20T08:12:45;41.38;;;28.80;;
22024;SDS011;11176;51.448;6.650;2022-11-20T08:15:32;38.95;;;27.20;;
22024;SDS011;11176;51.448;6.650;2022-11-20T08:17:59;40.38;;;27.80;;
22024;SDS011;11176;51.448;6.650;2022-11-20T08:20:49;36.40;;;25.88;;
22024;SDS011;11176;51.448;6.650;2022-11-20T08:23:16;35.42;;;24.65;;
22024;SDS011;11176;51.448;6.650;2022-11-20T08:25:42;34.38;;;24.20;;
22024;SDS011;11176;51.448;6.650;2022-11-20T08:28:09;36.90;;;25.13;;
22024;SDS011;11176;51.448;6.650;2022-11-20T08:30:46;32.35;;;23.77;;
22024;SDS011;11176;51.448;6.650;2022-11-20T08:33:12;35.35;;;24.75;;
22024;SDS011;11176;51.448;6.650;2022-11-20T08:35:39;35.75;;;24.10;;
22024;SDS011;11176;51.448;6.650;2022-11-20T08:38:07;31.20;;;22.52;;
22024;SDS011;11176;51.448;6.650;2022-11-20T08:40:35;31.42;;;22.58;;
22024;SDS011;11176;51.448;6.650;2022-11-20T08:43:01;33.58;;;22.45;;
22024;SDS011;11176;51.448;6.650;2022-11-20T08:45:28;33.38;;;21.98;;
22024;SDS011;11176;51.448;6.650;2022-11-20T08:48:00;35.10;;;23.83;;
22024;SDS011;11176;51.448;6.650;2022-11-20T08:50:30;33.30;;;22.23;;
22024;SDS011;11176;51.448;6.650;2022-11-20T08:53:02;33.53;;;22.95;;
22024;SDS011;11176;51.448;6.650;2022-11-20T08:57:58;32.50;;;22.67;;
22024;SDS011;11176;51.448;6.650;2022-11-20T09:00:29;30.65;;;22.15;;
22024;SDS011;11176;51.448;6.650;2022-11-20T09:02:56;33.05;;;23.33;;
22024;SDS011;11176;51.448;6.650;2022-11-20T09:05:22;34.53;;;23.98;;
22024;SDS011;11176;51.448;6.650;2022-11-20T09:07:48;34.33;;;23.30;;
22024;SDS011;11176;51.448;6.650;2022-11-20T09:10:15;36.05;;;23.77;;
22024;SDS011;11176;51.448;6.650;2022-11-20T09:12:50;40.50;;;27.15;;
22024;SDS011;11176;51.448;6.650;2022-11-20T09:15:18;36.90;;;24.65;;
22024;SDS011;11176;51.448;6.650;2022-11-20T09:17:55;33.60;;;23.33;;
22024;SDS011;11176;51.448;6.650;2022-11-20T09:20:26;31.17;;;21.48;;
22024;SDS011;11176;51.448;6.650;2022-11-20T09:22:57;29.27;;;20.95;;
22024;SDS011;11176;51.448;6.650;2022-11-20T09:25:23;29.20;;;20.83;;
22024;SDS011;11176;51.448;6.650;2022-11-20T09:27:56;33.53;;;22.75;;
22024;SDS011;11176;51.448;6.650;2022-11-20T09:30:24;31.83;;;21.60;;
22024;SDS011;11176;51.448;6.650;2022-11-20T09:32:51;32.50;;;22.23;;
22024;SDS011;11176;51.448;6.650;2022-11-20T09:35:17;32.00;;;22.25;;
22024;SDS011;11176;51.448;6.650;2022-11-20T09:37:44;32.97;;;22.83;;
22024;SDS011;11176;51.448;6.650;2022-11-20T09:40:19;30.77;;;21.90;;
22024;SDS011;11176;51.448;6.650;2022-11-20T09:42:56;31.02;;;22.60;;
22024;SDS011;11176;51.448;6.650;2022-11-20T09:45:38;31.55;;;22.15;;
22024;SDS011;11176;51.448;6.650;2022-11-20T09:53:45;34.22;;;21.75;;
22024;SDS011;11176;51.448;6.650;2022-11-20T09:56:13;30.77;;;20.75;;
22024;SDS011;11176;51.448;6.650;2022-11-20T10:01:16;32.15;;;21.10;;
22024;SDS011;11176;51.448;6.650;2022-11-20T10:03:56;31.30;;;21.73;;
22024;SDS011;11176;51.448;6.650;2022-11-20T10:06:49;32.85;;;22.55;;
22024;SDS011;11176;51.448;6.650;2022-11-20T10:09:43;29.83;;;20.13;;
22024;SDS011;11176;51.448;6.650;2022-11-20T10:17:58;32.10;;;21.75;;
22024;SDS011;11176;51.448;6.650;2022-11-20T10:20:40;32.60;;;21.23;;
22024;SDS011;11176;51.448;6.650;2022-11-20T10:26:01;34.03;;;22.83;;
22024;SDS011;11176;51.448;6.650;2022-11-20T10:31:31;34.83;;;22.15;;
22024;SDS011;11176;51.448;6.650;2022-11-20T10:34:01;34.00;;;23.33;;
22024;SDS011;11176;51.448;6.650;2022-11-20T10:36:52;34.70;;;22.05;;
22024;SDS011;11176;51.448;6.650;2022-11-20T10:39:28;34.25;;;22.88;;
22024;SDS011;11176;51.448;6.650;2022-11-20T10:42:00;34.40;;;22.38;;
22024;SDS011;11176;51.448;6.650;2022-11-20T10:44:27;34.75;;;22.23;;
22024;SDS011;11176;51.448;6.650;2022-11-20T10:47:21;34.25;;;22.08;;
22024;SDS011;11176;51.448;6.650;2022-11-20T10:49:48;33.30;;;22.75;;
22024;SDS011;11176;51.448;6.650;2022-11-20T10:58:18;37.20;;;22.67;;
22024;SDS011;11176;51.448;6.650;2022-11-20T11:00:52;32.85;;;22.35;;
22024;SDS011;11176;51.448;6.650;2022-11-20T11:03:29;36.25;;;22.98;;
22024;SDS011;11176;51.448;6.650;2022-11-20T11:06:06;34.00;;;22.15;;
22024;SDS011;11176;51.448;6.650;2022-11-20T11:08:39;37.47;;;23.13;;
22024;SDS011;11176;51.448;6.650;2022-11-20T11:11:15;35.08;;;22.48;;
22024;SDS011;11176;51.448;6.650;2022-11-20T11:13:48;37.67;;;22.42;;
22024;SDS011;11176;51.448;6.650;2022-11-20T11:16:33;38.42;;;23.48;;
22024;SDS011;11176;51.448;6.650;2022-11-20T11:19:11;33.40;;;22.15;;
22024;SDS011;11176;51.448;6.650;2022-11-20T11:21:45;36.03;;;21.90;;
22024;SDS011;11176;51.448;6.650;2022-11-20T11:24:24;34.38;;;22.00;;
22024;SDS011;11176;51.448;6.650;2022-11-20T11:27:11;35.38;;;21.70;;
22024;SDS011;11176;51.448;6.650;2022-11-20T11:29:43;37.13;;;21.90;;
22024;SDS011;11176;51.448;6.650;2022-11-20T11:32:13;32.10;;;20.92;;
22024;SDS011;11176;51.448;6.650;2022-11-20T11:34:57;36.40;;;21.88;;
22024;SDS011;11176;51.448;6.650;2022-11-20T11:37:25;36.72;;;22.42;;
22024;SDS011;11176;51.448;6.650;2022-11-20T11:40:00;35.28;;;22.13;;
22024;SDS011;11176;51.448;6.650;2022-11-20T11:42:57;36.25;;;21.15;;
22024;SDS011;11176;51.448;6.650;2022-11-20T11:45:27;37.05;;;21.83;;
22024;SDS011;11176;51.448;6.650;2022-11-20T11:47:55;33.15;;;20.98;;
22024;SDS011;11176;51.448;6.650;2022-11-20T11:50:25;37.78;;;21.60;;
22024;SDS011;11176;51.448;6.650;2022-11-20T12:01:22;30.63;;;20.23;;
22024;SDS011;11176;51.448;6.650;2022-11-20T12:06:34;34.13;;;21.63;;
22024;SDS011;11176;51.448;6.650;2022-11-20T12:09:05;36.75;;;20.98;;
22024;SDS011;11176;51.448;6.650;2022-11-20T12:11:37;33.78;;;20.98;;
22024;SDS011;11176;51.448;6.650;2022-11-20T12:14:16;34.33;;;20.50;;
22024;SDS011;11176;51.448;6.650;2022-11-20T12:16:50;33.38;;;20.33;;
22024;SDS011;11176;51.448;6.650;2022-11-20T12:19:18;32.90;;;20.40;;
22024;SDS011;11176;51.448;6.650;2022-11-20T12:21:48;34.55;;;20.13;;
22024;SDS011;11176;51.448;6.650;2022-11-20T12:24:32;35.97;;;20.52;;
22024;SDS011;11176;51.448;6.650;2022-11-20T12:30:04;33.15;;;19.42;;
22024;SDS011;11176;51.448;6.650;2022-11-20T12:35:14;32.17;;;18.97;;
22024;SDS011;11176;51.448;6.650;2022-11-20T12:37:48;29.30;;;17.70;;
22024;SDS011;11176;51.448;6.650;2022-11-20T12:46:43;28.73;;;17.80;;
22024;SDS011;11176;51.448;6.650;2022-11-20T13:00:21;28.95;;;17.63;;
22024;SDS011;11176;51.448;6.650;2022-11-20T13:03:03;29.40;;;18.40;;
22024;SDS011;11176;51.448;6.650;2022-11-20T13:08:41;28.55;;;17.55;;
22024;SDS011;11176;51.448;6.650;2022-11-20T13:11:18;31.63;;;19.77;;
22024;SDS011;11176;51.448;6.650;2022-11-20T13:16:53;37.67;;;21.58;;
22024;SDS011;11176;51.448;6.650;2022-11-20T13:19:21;33.58;;;21.08;;
22024;SDS011;11176;51.448;6.650;2022-11-20T13:21:48;39.72;;;22.48;;
22024;SDS011;11176;51.448;6.650;2022-11-20T13:26:46;36.53;;;21.48;;
22024;SDS011;11176;51.448;6.650;2022-11-20T13:29:19;30.30;;;19.38;;
22024;SDS011;11176;51.448;6.650;2022-11-20T13:31:46;32.95;;;19.95;;
22024;SDS011;11176;51.448;6.650;2022-11-20T13:34:24;32.75;;;20.80;;
22024;SDS011;11176;51.448;6.650;2022-11-20T13:36:54;31.08;;;19.55;;
22024;SDS011;11176;51.448;6.650;2022-11-20T13:39:26;34.30;;;21.55;;
22024;SDS011;11176;51.448;6.650;2022-11-20T13:41:57;32.63;;;20.58;;
22024;SDS011;11176;51.448;6.650;2022-11-20T13:46:59;34.42;;;21.33;;
22024;SDS011;11176;51.448;6.650;2022-11-20T13:49:26;33.53;;;20.65;;
22024;SDS011;11176;51.448;6.650;2022-11-20T13:52:04;34.40;;;21.77;;
22024;SDS011;11176;51.448;6.650;2022-11-20T13:54:55;32.28;;;20.80;;
22024;SDS011;11176;51.448;6.650;2022-11-20T14:02:38;32.85;;;20.83;;
22024;SDS011;11176;51.448;6.650;2022-11-20T14:05:05;34.92;;;20.83;;
22024;SDS011;11176;51.448;6.650;2022-11-20T14:07:39;37.95;;;21.13;;
22024;SDS011;11176;51.448;6.650;2022-11-20T14:10:22;35.47;;;21.60;;
22024;SDS011;11176;51.448;6.650;2022-11-20T14:12:57;34.45;;;21.05;;
22024;SDS011;11176;51.448;6.650;2022-11-20T14:15:29;35.42;;;22.42;;
22024;SDS011;11176;51.448;6.650;2022-11-20T14:17:58;35.70;;;21.50;;
22024;SDS011;11176;51.448;6.650;2022-11-20T14:20:27;35.95;;;21.98;;
22024;SDS011;11176;51.448;6.650;2022-11-20T14:22:55;36.70;;;23.67;;
22024;SDS011;11176;51.448;6.650;2022-11-20T14:25:25;34.20;;;22.52;;
22024;SDS011;11176;51.448;6.650;2022-11-20T14:27:57;34.50;;;22.17;;
22024;SDS011;11176;51.448;6.650;2022-11-20T14:30:29;38.35;;;23.88;;
22024;SDS011;11176;51.448;6.650;2022-11-20T14:33:13;38.20;;;23.25;;
22024;SDS011;11176;51.448;6.650;2022-11-20T14:35:44;37.28;;;23.58;;
22024;SDS011;11176;51.448;6.650;2022-11-20T14:38:17;34.78;;;21.25;;
22024;SDS011;11176;51.448;6.650;2022-11-20T14:43:25;38.92;;;23.65;;
22024;SDS011;11176;51.448;6.650;2022-11-20T14:45:57;43.97;;;25.63;;
22024;SDS011;11176;51.448;6.650;2022-11-20T14:48:33;48.23;;;29.20;;
22024;SDS011;11176;51.448;6.650;2022-11-20T14:51:04;47.20;;;28.90;;
22024;SDS011;11176;51.448;6.650;2022-11-20T14:53:31;44.78;;;26.23;;
22024;SDS011;11176;51.448;6.650;2022-11-20T14:55:58;39.67;;;24.50;;
22024;SDS011;11176;51.448;6.650;2022-11-20T14:58:27;39.53;;;23.15;;
22024;SDS011;11176;51.448;6.650;2022-11-20T15:01:05;42.53;;;24.88;;
22024;SDS011;11176;51.448;6.650;2022-11-20T15:03:34;39.58;;;23.42;;
22024;SDS011;11176;51.448;6.650;2022-11-20T15:06:02;38.03;;;23.05;;
22024;SDS011;11176;51.448;6.650;2022-11-20T15:08:29;36.72;;;23.08;;
22024;SDS011;11176;51.448;6.650;2022-11-20T15:10:55;47.13;;;23.85;;
22024;SDS011;11176;51.448;6.650;2022-11-20T15:13:29;36.30;;;21.65;;
22024;SDS011;11176;51.448;6.650;2022-11-20T15:15:58;34.80;;;22.85;;
22024;SDS011;11176;51.448;6.650;2022-11-20T15:18:30;39.70;;;23.13;;
22024;SDS011;11176;51.448;6.650;2022-11-20T15:21:02;38.17;;;23.60;;
22024;SDS011;11176;51.448;6.650;2022-11-20T15:23:32;42.40;;;24.17;;
22024;SDS011;11176;51.448;6.650;2022-11-20T15:25:58;39.42;;;23.58;;
22024;SDS011;11176;51.448;6.650;2022-11-20T15:28:31;40.65;;;22.75;;
22024;SDS011;11176;51.448;6.650;2022-11-20T15:31:00;38.10;;;22.90;;
22024;SDS011;11176;51.448;6.650;2022-11-20T15:33:28;41.15;;;23.88;;
22024;SDS011;11176;51.448;6.650;2022-11-20T15:35:54;39.53;;;24.40;;
22024;SDS011;11176;51.448;6.650;2022-11-20T15:38:21;38.95;;;24.88;;
22024;SDS011;11176;51.448;6.650;2022-11-20T15:40:47;39.58;;;24.08;;
22024;SDS011;11176;51.448;6.650;2022-11-20T15:43:14;43.88;;;26.15;;
22024;SDS011;11176;51.448;6.650;2022-11-20T15:45:44;46.30;;;26.73;;
22024;SDS011;11176;51.448;6.650;2022-11-20T15:48:17;49.05;;;27.42;;
22024;SDS011;11176;51.448;6.650;2022-11-20T15:53:31;43.58;;;25.80;;
22024;SDS011;11176;51.448;6.650;2022-11-20T15:55:58;46.63;;;28.63;;
22024;SDS011;11176;51.448;6.650;2022-11-20T15:58:24;47.25;;;28.60;;
22024;SDS011;11176;51.448;6.650;2022-11-20T16:00:50;46.00;;;26.83;;
22024;SDS011;11176;51.448;6.650;2022-11-20T16:03:17;50.47;;;28.98;;